Time,TemperatureF,DewpointF,PressureIn,WindDirection,WindDirectionDegrees,WindSpeedMPH,WindSpeedGustMPH,Humidity,HourlyPrecipIn,Conditions,Clouds,dailyrainin,SoftwareType,DateUTC
2013-04-13 00:00:00,51.7,49.2,29.93,NNE,24,0.0,0.0,91,0.00,,---,0.01,VWS V14.01,2013-04-13 05:00:00,
2013-04-13 00:02:00,51.7,49.2,29.93,NNE,24,0.0,0.0,91,0.00,,---,0.00,VWS V14.01,2013-04-13 05:02:00,
2013-04-13 00:07:00,51.7,49.5,29.93,NNE,24,0.0,0.0,92,0.00,,---,0.00,VWS V14.01,2013-04-13 05:07:00,
2013-04-13 00:13:00,51.6,49.4,29.93,NNE,24,0.0,0.0,92,0.00,,---,0.00,VWS V14.01,2013-04-13 05:13:00,
2013-04-13 00:15:00,51.6,49.4,29.93,NNE,24,0.0,0.0,92,0.00,,---,0.00,VWS V14.01,2013-04-13 05:15:00,
2013-04-13 00:18:00,51.6,49.4,29.93,NNE,24,0.0,0.0,92,0.00,,---,0.00,VWS V14.01,2013-04-13 05:18:00,
2013-04-13 00:23:00,51.4,49.2,29.93,NNE,24,0.0,0.0,92,0.00,,---,0.00,VWS V14.01,2013-04-13 05:23:00,
2013-04-13 00:28:00,51.4,49.2,29.93,NNE,24,0.0,0.0,92,0.00,,---,0.00,VWS V14.01,2013-04-13 05:28:00,
2013-04-13 00:30:00,51.4,49.2,29.94,NNE,24,0.0,0.0,92,0.00,,---,0.00,VWS V14.01,2013-04-13 05:30:00,
2013-04-13 00:33:00,51.3,49.1,29.94,NNE,24,0.0,0.0,92,0.00,,---,0.00,VWS V14.01,2013-04-13 05:33:00,
2013-04-13 00:38:00,51.3,49.1,29.94,NNE,24,0.0,0.0,92,0.00,,---,0.00,VWS V14.01,2013-04-13 05:38:00,
2013-04-13 00:43:00,51.1,48.9,29.94,NNE,24,0.0,0.0,92,0.00,,---,0.00,VWS V14.01,2013-04-13 05:43:00,
2013-04-13 00:45:00,51.1,48.9,29.93,NNE,24,0.0,0.0,92,0.00,,---,0.00,VWS V14.01,2013-04-13 05:45:00,
2013-04-13 00:48:00,51.0,48.8,29.93,NNE,24,0.0,0.0,92,0.00,,---,0.00,VWS V14.01,2013-04-13 05:48:00,
2013-04-13 00:53:00,51.0,48.8,29.93,NNE,24,0.0,0.0,92,0.00,,---,0.00,VWS V14.01,2013-04-13 05:53:00,
2013-04-13 00:58:00,50.8,48.6,29.93,NNE,24,0.0,0.0,92,0.00,,---,0.00,VWS V14.01,2013-04-13 05:58:00,
2013-04-13 01:00:00,50.8,48.6,29.93,NNE,24,0.0,0.0,92,0.00,,---,0.00,VWS V14.01,2013-04-13 06:00:00,
2013-04-13 01:03:00,50.8,48.6,29.93,NNE,24,0.0,0.0,92,0.00,,---,0.00,VWS V14.01,2013-04-13 06:03:00,
2013-04-13 01:08:00,50.7,48.5,29.93,NNE,24,0.0,0.0,92,0.00,,---,0.00,VWS V14.01,2013-04-13 06:08:00,
2013-04-13 01:13:00,50.7,48.5,29.93,NNE,24,0.0,0.0,92,0.00,,---,0.00,VWS V14.01,2013-04-13 06:13:00,
2013-04-13 01:15:00,50.7,48.5,29.93,NNE,24,0.0,0.0,92,0.00,,---,0.00,VWS V14.01,2013-04-13 06:15:00,
2013-04-13 01:18:00,50.5,48.3,29.93,NNE,24,0.0,0.0,92,0.00,,---,0.00,VWS V14.01,2013-04-13 06:18:00,
2013-04-13 01:23:00,50.5,48.3,29.93,NNE,24,0.0,0.0,92,0.00,,---,0.00,VWS V14.01,2013-04-13 06:23:00,
2013-04-13 01:28:00,50.5,48.3,29.93,NNE,24,0.0,0.0,92,0.00,,---,0.00,VWS V14.01,2013-04-13 06:28:00,
2013-04-13 01:30:00,50.5,48.3,29.92,NNE,24,0.0,0.0,92,0.00,,---,0.00,VWS V14.01,2013-04-13 06:30:00,
2013-04-13 01:33:00,50.4,48.2,29.92,NNE,24,0.0,0.0,92,0.00,,---,0.00,VWS V14.01,2013-04-13 06:33:00,
2013-04-13 01:39:00,50.2,48.0,29.92,NNE,24,0.0,0.0,92,0.00,,---,0.00,VWS V14.01,2013-04-13 06:39:00,
2013-04-13 01:44:00,50.2,48.0,29.92,NNE,24,0.0,0.0,92,0.00,,---,0.00,VWS V14.01,2013-04-13 06:44:00,
2013-04-13 01:45:00,50.2,48.0,29.92,NNE,24,0.0,0.0,92,0.00,,---,0.00,VWS V14.01,2013-04-13 06:45:00,
2013-04-13 01:49:00,50.1,47.9,29.92,NNE,24,0.0,0.0,92,0.00,,---,0.00,VWS V14.01,2013-04-13 06:49:00,
2013-04-13 01:54:00,50.1,47.9,29.92,NNE,24,0.0,0.0,92,0.00,,---,0.00,VWS V14.01,2013-04-13 06:54:00,
2013-04-13 01:59:00,49.9,47.7,29.92,NNE,24,0.0,0.0,92,0.00,,---,0.00,VWS V14.01,2013-04-13 06:59:00,
2013-04-13 02:00:00,49.9,47.7,29.92,NNE,24,0.0,0.0,92,0.00,,---,0.00,VWS V14.01,2013-04-13 07:00:00,
2013-04-13 02:04:00,49.9,47.7,29.92,NNE,24,0.0,0.0,92,0.00,,---,0.00,VWS V14.01,2013-04-13 07:04:00,
2013-04-13 02:09:00,49.9,47.7,29.92,NNE,24,0.0,0.0,92,0.00,,---,0.00,VWS V14.01,2013-04-13 07:09:00,
2013-04-13 02:14:00,49.9,48.0,29.92,NNE,24,0.0,0.0,93,0.00,,---,0.00,VWS V14.01,2013-04-13 07:14:00,
2013-04-13 02:15:00,49.9,47.7,29.92,NNE,24,0.0,0.0,92,0.00,,---,0.00,VWS V14.01,2013-04-13 07:15:00,
2013-04-13 02:20:00,49.8,47.9,29.92,NNE,24,0.0,0.0,93,0.00,,---,0.00,VWS V14.01,2013-04-13 07:20:00,
2013-04-13 02:25:00,49.6,47.7,29.92,NNE,24,0.0,0.0,93,0.00,,---,0.00,VWS V14.01,2013-04-13 07:25:00,
2013-04-13 02:30:00,49.6,47.7,29.92,NNE,24,0.0,0.0,93,0.00,,---,0.00,VWS V14.01,2013-04-13 07:30:00,
2013-04-13 02:35:00,49.6,47.7,29.92,NNE,24,0.0,0.0,93,0.00,,---,0.00,VWS V14.01,2013-04-13 07:35:00,
2013-04-13 02:40:00,49.6,47.7,29.92,NNE,24,0.0,0.0,93,0.00,,---,0.00,VWS V14.01,2013-04-13 07:40:00,
2013-04-13 02:45:00,49.5,47.3,29.91,NNE,24,0.0,0.0,92,0.00,,---,0.00,VWS V14.01,2013-04-13 07:45:00,
2013-04-13 02:50:00,49.5,47.3,29.91,NNE,24,0.0,0.0,92,0.00,,---,0.00,VWS V14.01,2013-04-13 07:50:00,
2013-04-13 02:55:00,49.4,47.2,29.91,NNE,24,0.0,0.0,92,0.00,,---,0.00,VWS V14.01,2013-04-13 07:55:00,
2013-04-13 03:00:00,49.2,47.0,29.92,NNE,24,0.0,0.0,92,0.00,,---,0.00,VWS V14.01,2013-04-13 08:00:00,
2013-04-13 03:01:00,49.2,47.0,29.92,NNE,24,0.0,0.0,92,0.00,,---,0.00,VWS V14.01,2013-04-13 08:01:00,
2013-04-13 03:06:00,49.2,47.0,29.92,NNE,24,0.0,0.0,92,0.00,,---,0.00,VWS V14.01,2013-04-13 08:06:00,
2013-04-13 03:12:00,49.2,47.3,29.92,NNE,24,0.0,0.0,93,0.00,,---,0.00,VWS V14.01,2013-04-13 08:12:00,
2013-04-13 03:15:00,49.2,47.0,29.92,NNE,24,0.0,0.0,92,0.00,,---,0.00,VWS V14.01,2013-04-13 08:15:00,
2013-04-13 03:17:00,49.1,46.9,29.92,NNE,24,0.0,0.0,92,0.00,,---,0.00,VWS V14.01,2013-04-13 08:17:00,
2013-04-13 03:22:00,49.1,46.9,29.92,NNE,24,0.0,0.0,92,0.00,,---,0.00,VWS V14.01,2013-04-13 08:22:00,
2013-04-13 03:28:00,48.9,46.7,29.92,NNE,24,0.0,0.0,92,0.00,,---,0.00,VWS V14.01,2013-04-13 08:28:00,
2013-04-13 03:30:00,48.9,46.7,29.91,NNE,24,0.0,0.0,92,0.00,,---,0.00,VWS V14.01,2013-04-13 08:30:00,
2013-04-13 03:33:00,48.9,46.7,29.91,NNE,24,0.0,0.0,92,0.00,,---,0.00,VWS V14.01,2013-04-13 08:33:00,
2013-04-13 03:38:00,48.8,46.6,29.91,NNE,24,0.0,0.0,92,0.00,,---,0.00,VWS V14.01,2013-04-13 08:38:00,
2013-04-13 03:43:00,48.8,46.9,29.91,NNE,24,0.0,0.0,93,0.00,,---,0.00,VWS V14.01,2013-04-13 08:43:00,
2013-04-13 03:45:00,48.8,46.9,29.91,NNE,24,0.0,0.0,93,0.00,,---,0.00,VWS V14.01,2013-04-13 08:45:00,
2013-04-13 03:48:00,48.8,46.9,29.91,NNE,24,0.0,0.0,93,0.00,,---,0.00,VWS V14.01,2013-04-13 08:48:00,
2013-04-13 03:53:00,48.8,46.9,29.91,NNE,22,0.0,2.0,93,0.00,,---,0.00,VWS V14.01,2013-04-13 08:53:00,
2013-04-13 03:58:00,48.6,46.7,29.91,NE,45,0.0,2.0,93,0.00,,---,0.00,VWS V14.01,2013-04-13 08:58:00,
2013-04-13 04:00:00,48.6,46.7,29.91,NE,45,0.0,2.0,93,0.00,,---,0.00,VWS V14.01,2013-04-13 09:00:00,
2013-04-13 04:03:00,48.6,46.7,29.91,NE,45,0.0,0.0,93,0.00,,---,0.00,VWS V14.01,2013-04-13 09:03:00,
2013-04-13 04:09:00,48.8,46.9,29.91,NE,45,0.0,0.0,93,0.00,,---,0.00,VWS V14.01,2013-04-13 09:09:00,
2013-04-13 04:14:00,48.8,46.9,29.91,NE,45,0.0,1.0,93,0.00,,---,0.00,VWS V14.01,2013-04-13 09:14:00,
2013-04-13 04:15:00,48.9,47.0,29.91,NE,45,0.0,1.0,93,0.00,,---,0.00,VWS V14.01,2013-04-13 09:15:00,
2013-04-13 04:19:00,48.9,47.0,29.91,NE,45,0.0,1.0,93,0.00,,---,0.00,VWS V14.01,2013-04-13 09:19:00,
2013-04-13 04:25:00,49.1,46.9,29.91,NE,45,0.0,1.0,92,0.00,,---,0.00,VWS V14.01,2013-04-13 09:25:00,
2013-04-13 04:30:00,49.1,46.9,29.91,NE,38,0.0,2.0,92,0.00,,---,0.00,VWS V14.01,2013-04-13 09:30:00,
2013-04-13 04:35:00,49.1,46.9,29.91,East,87,0.0,2.0,92,0.00,,---,0.00,VWS V14.01,2013-04-13 09:35:00,
2013-04-13 04:40:00,49.2,47.0,29.91,East,87,0.0,2.0,92,0.00,,---,0.00,VWS V14.01,2013-04-13 09:40:00,
2013-04-13 04:45:00,49.5,47.6,29.91,East,89,1.0,1.0,93,0.00,,---,0.00,VWS V14.01,2013-04-13 09:45:00,
2013-04-13 04:50:00,49.5,47.3,29.91,East,92,0.0,1.0,92,0.00,,---,0.00,VWS V14.01,2013-04-13 09:50:00,
2013-04-13 04:55:00,49.5,47.3,29.91,ENE,77,0.0,1.0,92,0.00,,---,0.00,VWS V14.01,2013-04-13 09:55:00,
2013-04-13 05:00:00,49.4,47.2,29.91,ENE,77,0.0,1.0,92,0.00,,---,0.00,VWS V14.01,2013-04-13 10:00:00,
2013-04-13 05:01:00,49.4,47.2,29.91,ENE,77,0.0,0.0,92,0.00,,---,0.00,VWS V14.01,2013-04-13 10:01:00,
2013-04-13 05:06:00,49.2,47.0,29.91,ENE,77,0.0,0.0,92,0.00,,---,0.00,VWS V14.01,2013-04-13 10:06:00,
2013-04-13 05:12:00,49.2,47.0,29.91,ENE,77,0.0,0.0,92,0.00,,---,0.00,VWS V14.01,2013-04-13 10:12:00,
2013-04-13 05:15:00,49.2,47.0,29.91,ENE,77,0.0,0.0,92,0.00,,---,0.00,VWS V14.01,2013-04-13 10:15:00,
2013-04-13 05:17:00,49.1,46.9,29.91,ENE,77,0.0,0.0,92,0.00,,---,0.00,VWS V14.01,2013-04-13 10:17:00,
2013-04-13 05:22:00,49.1,46.9,29.91,ENE,77,0.0,0.0,92,0.00,,---,0.00,VWS V14.01,2013-04-13 10:22:00,
2013-04-13 05:27:00,48.9,46.7,29.91,ENE,77,0.0,0.0,92,0.00,,---,0.00,VWS V14.01,2013-04-13 10:27:00,
2013-04-13 05:30:00,48.9,46.7,29.92,ENE,77,0.0,0.0,92,0.00,,---,0.00,VWS V14.01,2013-04-13 10:30:00,
2013-04-13 05:32:00,48.8,46.6,29.92,ENE,77,0.0,0.0,92,0.00,,---,0.00,VWS V14.01,2013-04-13 10:32:00,
2013-04-13 05:37:00,48.8,46.6,29.92,ENE,77,0.0,0.0,92,0.00,,---,0.00,VWS V14.01,2013-04-13 10:37:00,
2013-04-13 05:43:00,48.8,46.6,29.92,ENE,77,0.0,0.0,92,0.00,,---,0.00,VWS V14.01,2013-04-13 10:43:00,
2013-04-13 05:45:00,48.8,46.6,29.92,ENE,77,0.0,0.0,92,0.00,,---,0.00,VWS V14.01,2013-04-13 10:45:00,
2013-04-13 05:48:00,48.8,46.6,29.92,ENE,77,0.0,0.0,92,0.00,,---,0.00,VWS V14.01,2013-04-13 10:48:00,
2013-04-13 05:53:00,48.6,46.4,29.92,ENE,77,0.0,0.0,92,0.00,,---,0.00,VWS V14.01,2013-04-13 10:53:00,
2013-04-13 05:58:00,48.6,46.4,29.92,ENE,77,0.0,0.0,92,0.00,,---,0.00,VWS V14.01,2013-04-13 10:58:00,
2013-04-13 06:00:00,48.5,46.3,29.92,ENE,77,0.0,0.0,92,0.00,,---,0.00,VWS V14.01,2013-04-13 11:00:00,
2013-04-13 06:04:00,48.5,46.3,29.92,ENE,77,0.0,0.0,92,0.00,,---,0.00,VWS V14.01,2013-04-13 11:04:00,
2013-04-13 06:09:00,48.3,46.1,29.92,ENE,77,0.0,0.0,92,0.00,,---,0.00,VWS V14.01,2013-04-13 11:09:00,
2013-04-13 06:14:00,48.2,46.0,29.92,ENE,77,0.0,0.0,92,0.00,,---,0.00,VWS V14.01,2013-04-13 11:14:00,
2013-04-13 06:15:00,48.2,46.0,29.92,ENE,77,0.0,0.0,92,0.00,,---,0.00,VWS V14.01,2013-04-13 11:15:00,
2013-04-13 06:19:00,48.0,45.8,29.92,ENE,77,0.0,0.0,92,0.00,,---,0.00,VWS V14.01,2013-04-13 11:19:00,
2013-04-13 06:24:00,47.9,45.7,29.92,ENE,77,0.0,0.0,92,0.00,,---,0.00,VWS V14.01,2013-04-13 11:24:00,
2013-04-13 06:29:00,47.7,45.5,29.93,ENE,77,0.0,0.0,92,0.00,,---,0.00,VWS V14.01,2013-04-13 11:29:00,
2013-04-13 06:30:00,47.7,45.8,29.93,ENE,77,0.0,0.0,93,0.00,,---,0.00,VWS V14.01,2013-04-13 11:30:00,
2013-04-13 06:34:00,47.6,45.7,29.93,ENE,77,0.0,0.0,93,0.00,,---,0.00,VWS V14.01,2013-04-13 11:34:00,
2013-04-13 06:39:00,47.6,45.7,29.93,ENE,77,0.0,0.0,93,0.00,,---,0.00,VWS V14.01,2013-04-13 11:39:00,
2013-04-13 06:44:00,47.4,45.5,29.93,ENE,77,0.0,0.0,93,0.00,,---,0.00,VWS V14.01,2013-04-13 11:44:00,
2013-04-13 06:45:00,47.4,45.5,29.93,ENE,77,0.0,0.0,93,0.00,,---,0.00,VWS V14.01,2013-04-13 11:45:00,
2013-04-13 06:49:00,47.4,45.5,29.93,ENE,77,0.0,0.0,93,0.00,,---,0.00,VWS V14.01,2013-04-13 11:49:00,
2013-04-13 06:54:00,47.3,45.4,29.93,ENE,77,0.0,0.0,93,0.00,,---,0.00,VWS V14.01,2013-04-13 11:54:00,
2013-04-13 06:59:00,47.3,45.4,29.93,ENE,77,0.0,0.0,93,0.00,,---,0.00,VWS V14.01,2013-04-13 11:59:00,
2013-04-13 07:00:00,47.3,45.4,29.93,ENE,77,0.0,0.0,93,0.00,,---,0.00,VWS V14.01,2013-04-13 12:00:00,
2013-04-13 07:05:00,47.1,45.2,29.93,ENE,77,0.0,0.0,93,0.00,,---,0.00,VWS V14.01,2013-04-13 12:05:00,
2013-04-13 07:10:00,47.1,45.2,29.93,ENE,77,0.0,0.0,93,0.00,,---,0.00,VWS V14.01,2013-04-13 12:10:00,
2013-04-13 07:15:00,47.3,45.7,29.94,ENE,77,0.0,0.0,94,0.00,,---,0.00,VWS V14.01,2013-04-13 12:15:00,
2013-04-13 07:20:00,47.7,46.1,29.94,ENE,77,0.0,0.0,94,0.00,,---,0.00,VWS V14.01,2013-04-13 12:20:00,
2013-04-13 07:26:00,47.9,46.3,29.94,ENE,77,0.0,0.0,94,0.00,,---,0.00,VWS V14.01,2013-04-13 12:26:00,
2013-04-13 07:30:00,48.2,46.6,29.95,ENE,77,0.0,0.0,94,0.00,,---,0.00,VWS V14.01,2013-04-13 12:30:00,
2013-04-13 07:31:00,48.2,46.6,29.95,ENE,77,0.0,0.0,94,0.00,,---,0.00,VWS V14.01,2013-04-13 12:31:00,
2013-04-13 07:36:00,48.5,46.9,29.95,ENE,77,0.0,0.0,94,0.00,,---,0.00,VWS V14.01,2013-04-13 12:36:00,
2013-04-13 07:42:00,49.1,47.7,29.95,ENE,77,0.0,0.0,95,0.00,,---,0.00,VWS V14.01,2013-04-13 12:42:00,
2013-04-13 07:45:00,49.4,48.0,29.95,ENE,77,0.0,0.0,95,0.00,,---,0.00,VWS V14.01,2013-04-13 12:45:00,
2013-04-13 07:47:00,49.5,48.1,29.95,ENE,77,0.0,0.0,95,0.00,,---,0.00,VWS V14.01,2013-04-13 12:47:00,
2013-04-13 07:52:00,50.2,48.8,29.95,ENE,77,0.0,0.0,95,0.00,,---,0.00,VWS V14.01,2013-04-13 12:52:00,
2013-04-13 07:57:00,50.8,49.1,29.95,ENE,77,0.0,0.0,94,0.00,,---,0.00,VWS V14.01,2013-04-13 12:57:00,
2013-04-13 08:00:00,51.0,49.3,29.96,ENE,77,0.0,0.0,94,0.00,,---,0.00,VWS V14.01,2013-04-13 13:00:00,
2013-04-13 08:02:00,51.1,49.4,29.96,ENE,77,0.0,0.0,94,0.00,,---,0.00,VWS V14.01,2013-04-13 13:02:00,
2013-04-13 08:08:00,51.7,50.0,29.96,ENE,77,0.0,0.0,94,0.00,,---,0.00,VWS V14.01,2013-04-13 13:08:00,
2013-04-13 08:13:00,52.2,50.2,29.96,ENE,77,0.0,0.0,93,0.00,,---,0.00,VWS V14.01,2013-04-13 13:13:00,
2013-04-13 08:15:00,52.2,50.0,29.97,ENE,77,0.0,1.0,92,0.00,,---,0.00,VWS V14.01,2013-04-13 13:15:00,
2013-04-13 08:18:00,52.5,49.7,29.97,ENE,78,0.0,0.0,90,0.00,,---,0.00,VWS V14.01,2013-04-13 13:18:00,
2013-04-13 08:23:00,53.2,49.7,29.97,East,98,0.0,3.0,88,0.00,,---,0.00,VWS V14.01,2013-04-13 13:23:00,
2013-04-13 08:28:00,54.1,49.4,29.97,SE,134,0.0,4.0,84,0.00,,---,0.00,VWS V14.01,2013-04-13 13:28:00,
2013-04-13 08:30:00,54.2,49.2,29.97,SE,134,0.0,4.0,83,0.00,,---,0.00,VWS V14.01,2013-04-13 13:30:00,
2013-04-13 08:33:00,54.4,49.0,29.97,SE,134,0.0,0.0,82,0.00,,---,0.00,VWS V14.01,2013-04-13 13:33:00,
2013-04-13 08:38:00,54.8,48.8,29.97,ESE,109,0.0,1.0,80,0.00,,---,0.00,VWS V14.01,2013-04-13 13:38:00,
2013-04-13 08:44:00,55.3,48.9,29.97,ESE,109,0.0,1.0,79,0.00,,---,0.00,VWS V14.01,2013-04-13 13:44:00,
2013-04-13 08:45:00,55.4,49.0,29.97,ESE,109,0.0,1.0,79,0.00,,---,0.00,VWS V14.01,2013-04-13 13:45:00,
2013-04-13 08:49:00,56.0,48.9,29.97,ESE,109,0.0,0.0,77,0.00,,---,0.00,VWS V14.01,2013-04-13 13:49:00,
2013-04-13 08:54:00,56.7,48.9,29.97,East,89,0.0,2.0,75,0.00,,---,0.00,VWS V14.01,2013-04-13 13:54:00,
2013-04-13 09:00:00,57.5,48.6,29.97,ESE,111,0.0,6.0,72,0.00,,---,0.00,VWS V14.01,2013-04-13 14:00:00,
2013-04-13 09:05:00,58.7,49.3,29.97,East,101,0.0,0.0,71,0.00,,---,0.00,VWS V14.01,2013-04-13 14:05:00,
2013-04-13 09:10:00,59.9,50.1,29.97,ESE,113,0.0,3.0,70,0.00,,---,0.00,VWS V14.01,2013-04-13 14:10:00,
2013-04-13 09:15:00,61.2,51.0,29.97,East,83,0.0,0.0,69,0.00,,---,0.00,VWS V14.01,2013-04-13 14:15:00,
2013-04-13 09:20:00,62.0,50.5,29.97,SE,128,0.0,4.0,66,0.00,,---,0.00,VWS V14.01,2013-04-13 14:20:00,
2013-04-13 09:25:00,62.9,50.1,29.97,ESE,115,0.0,5.0,63,0.00,,---,0.00,VWS V14.01,2013-04-13 14:25:00,
2013-04-13 09:30:00,63.4,49.3,29.97,SE,125,0.0,0.0,60,0.00,,---,0.00,VWS V14.01,2013-04-13 14:30:00,
2013-04-13 09:35:00,64.3,51.0,29.97,SE,128,0.0,0.0,62,0.00,,---,0.00,VWS V14.01,2013-04-13 14:35:00,
2013-04-13 09:40:00,65.5,49.4,29.97,SSE,160,1.0,7.0,56,0.00,,---,0.00,VWS V14.01,2013-04-13 14:40:00,
2013-04-13 09:45:00,65.6,49.5,29.97,ESE,115,0.0,0.0,56,0.00,,---,0.00,VWS V14.01,2013-04-13 14:45:00,
2013-04-13 09:50:00,66.1,50.0,29.97,East,98,3.0,5.0,56,0.00,,---,0.00,VWS V14.01,2013-04-13 14:50:00,
2013-04-13 09:56:00,66.1,49.5,29.97,ESE,107,2.0,5.0,55,0.00,,---,0.00,VWS V14.01,2013-04-13 14:56:00,
2013-04-13 10:00:00,66.3,49.7,29.97,SE,130,0.0,5.0,55,0.00,,---,0.00,VWS V14.01,2013-04-13 15:00:00,
2013-04-13 10:02:00,66.3,51.1,29.97,SE,130,0.0,0.0,58,0.00,,---,0.00,VWS V14.01,2013-04-13 15:02:00,
2013-04-13 10:07:00,67.1,51.8,29.97,SE,129,0.0,1.0,58,0.00,,---,0.00,VWS V14.01,2013-04-13 15:07:00,
2013-04-13 10:12:00,67.6,50.4,29.97,SSE,150,0.0,5.0,54,0.00,,---,0.00,VWS V14.01,2013-04-13 15:12:00,
2013-04-13 10:15:00,67.6,49.4,29.98,East,97,0.0,5.0,52,0.00,,---,0.00,VWS V14.01,2013-04-13 15:15:00,
2013-04-13 10:17:00,67.6,50.9,29.98,East,98,0.0,0.0,55,0.00,,---,0.00,VWS V14.01,2013-04-13 15:17:00,
2013-04-13 10:22:00,67.9,50.2,29.98,SSW,195,0.0,3.0,53,0.00,,---,0.00,VWS V14.01,2013-04-13 15:22:00,
2013-04-13 10:27:00,68.4,49.6,29.98,ESE,119,2.0,4.0,51,0.00,,---,0.00,VWS V14.01,2013-04-13 15:27:00,
2013-04-13 10:30:00,68.8,50.0,29.98,ESE,105,0.0,4.0,51,0.00,,---,0.00,VWS V14.01,2013-04-13 15:30:00,
2013-04-13 10:32:00,69.1,49.7,29.98,East,85,0.0,0.0,50,0.00,,---,0.00,VWS V14.01,2013-04-13 15:32:00,
2013-04-13 10:37:00,69.1,48.0,29.98,East,92,0.0,5.0,47,0.00,,---,0.00,VWS V14.01,2013-04-13 15:37:00,
2013-04-13 10:42:00,69.8,49.8,29.98,SSE,151,0.0,5.0,49,0.00,,---,0.00,VWS V14.01,2013-04-13 15:42:00,
2013-04-13 10:45:00,69.9,49.3,29.97,East,101,6.0,7.0,48,0.00,,---,0.00,VWS V14.01,2013-04-13 15:45:00,
2013-04-13 10:47:00,70.1,49.0,29.97,ESE,111,0.0,9.0,47,0.00,,---,0.00,VWS V14.01,2013-04-13 15:47:00,
2013-04-13 10:52:00,70.6,49.4,29.97,SE,144,3.0,9.0,47,0.00,,---,0.00,VWS V14.01,2013-04-13 15:52:00,
2013-04-13 10:58:00,70.6,49.4,29.97,East,88,3.0,12.0,47,0.00,,---,0.00,VWS V14.01,2013-04-13 15:58:00,
2013-04-13 11:00:00,70.6,46.4,29.97,ENE,70,0.0,12.0,42,0.00,,---,0.00,VWS V14.01,2013-04-13 16:00:00,
2013-04-13 11:03:00,70.9,48.5,29.97,East,97,0.0,10.0,45,0.00,,---,0.00,VWS V14.01,2013-04-13 16:03:00,
2013-04-13 11:08:00,71.1,46.9,29.97,ESE,111,2.0,12.0,42,0.00,,---,0.00,VWS V14.01,2013-04-13 16:08:00,
2013-04-13 11:13:00,71.3,48.3,29.97,East,95,3.0,12.0,44,0.00,,---,0.00,VWS V14.01,2013-04-13 16:13:00,
2013-04-13 11:15:00,71.5,48.5,29.97,SE,146,0.0,12.0,44,0.00,,---,0.00,VWS V14.01,2013-04-13 16:15:00,
2013-04-13 11:18:00,72.1,49.0,29.97,ESE,123,0.0,3.0,44,0.00,,---,0.00,VWS V14.01,2013-04-13 16:18:00,
2013-04-13 11:24:00,72.5,47.5,29.97,ENE,77,0.0,15.0,41,0.00,,---,0.00,VWS V14.01,2013-04-13 16:24:00,
2013-04-13 11:30:00,72.5,46.2,29.96,ESE,115,12.0,15.0,39,0.00,,---,0.00,VWS V14.01,2013-04-13 16:30:00,
2013-04-13 11:35:00,72.7,46.3,29.96,SE,144,0.0,14.0,39,0.00,,---,0.00,VWS V14.01,2013-04-13 16:35:00,
2013-04-13 11:40:00,72.5,46.8,29.96,SE,135,0.0,14.0,40,0.00,,---,0.00,VWS V14.01,2013-04-13 16:40:00,
2013-04-13 11:45:00,72.1,45.1,29.95,East,84,2.0,2.0,38,0.00,,---,0.00,VWS V14.01,2013-04-13 16:45:00,
2013-04-13 11:50:00,71.8,46.2,29.95,East,93,1.0,12.0,40,0.00,,---,0.00,VWS V14.01,2013-04-13 16:50:00,
2013-04-13 11:55:00,72.5,45.5,29.95,SE,126,0.0,12.0,38,0.00,,---,0.00,VWS V14.01,2013-04-13 16:55:00,
2013-04-13 12:00:00,73.5,47.7,29.95,ESE,107,0.0,0.0,40,0.00,,---,0.00,VWS V14.01,2013-04-13 17:00:00,
2013-04-13 12:06:00,73.9,46.7,29.95,East,93,3.0,11.0,38,0.00,,---,0.00,VWS V14.01,2013-04-13 17:06:00,
2013-04-13 12:11:00,74.0,46.1,29.95,East,79,1.0,12.0,37,0.00,,---,0.00,VWS V14.01,2013-04-13 17:11:00,
2013-04-13 12:15:00,74.4,44.2,29.95,ESE,113,0.0,12.0,34,0.00,,---,0.00,VWS V14.01,2013-04-13 17:15:00,
2013-04-13 12:16:00,74.4,44.2,29.95,ESE,105,3.0,4.0,34,0.00,,---,0.00,VWS V14.01,2013-04-13 17:16:00,
2013-04-13 12:22:00,74.9,45.4,29.95,SE,134,6.0,7.0,35,0.00,,---,0.00,VWS V14.01,2013-04-13 17:22:00,
2013-04-13 12:27:00,74.9,46.9,29.95,NE,34,0.0,10.0,37,0.00,,---,0.00,VWS V14.01,2013-04-13 17:27:00,
2013-04-13 12:30:00,75.1,45.6,29.94,East,93,0.0,10.0,35,0.00,,---,0.00,VWS V14.01,2013-04-13 17:30:00,
2013-04-13 12:32:00,75.4,46.6,29.94,SE,128,0.0,7.0,36,0.00,,---,0.00,VWS V14.01,2013-04-13 17:32:00,
2013-04-13 12:37:00,75.8,48.4,29.94,SW,216,0.0,7.0,38,0.00,,---,0.00,VWS V14.01,2013-04-13 17:37:00,
2013-04-13 12:43:00,76.1,46.5,29.94,ESE,121,0.0,7.0,35,0.00,,---,0.00,VWS V14.01,2013-04-13 17:43:00,
2013-04-13 12:45:00,76.3,48.8,29.93,South,169,0.0,7.0,38,0.00,,---,0.00,VWS V14.01,2013-04-13 17:45:00,
2013-04-13 12:48:00,76.7,46.2,29.93,South,191,0.0,4.0,34,0.00,,---,0.00,VWS V14.01,2013-04-13 17:48:00,
2013-04-13 12:53:00,76.1,41.6,29.93,SE,138,0.0,12.0,29,0.00,,---,0.00,VWS V14.01,2013-04-13 17:53:00,
2013-04-13 12:58:00,76.1,44.9,29.93,ESE,111,0.0,12.0,33,0.00,,---,0.00,VWS V14.01,2013-04-13 17:58:00,
2013-04-13 13:00:00,76.1,44.9,29.93,SE,130,2.0,12.0,33,0.00,,---,0.00,VWS V14.01,2013-04-13 18:00:00,
2013-04-13 13:03:00,76.1,47.2,29.93,South,175,1.0,10.0,36,0.00,,---,0.00,VWS V14.01,2013-04-13 18:03:00,
2013-04-13 13:08:00,76.0,44.0,29.93,East,88,2.0,10.0,32,0.00,,---,0.00,VWS V14.01,2013-04-13 18:08:00,
2013-04-13 13:13:00,76.0,44.8,29.93,NNE,19,3.0,10.0,33,0.00,,---,0.00,VWS V14.01,2013-04-13 18:13:00,
2013-04-13 13:15:00,76.1,47.2,29.92,ESE,105,4.0,10.0,36,0.00,,---,0.00,VWS V14.01,2013-04-13 18:15:00,
2013-04-13 13:18:00,76.1,51.4,29.92,SE,126,5.0,5.0,42,0.00,,---,0.00,VWS V14.01,2013-04-13 18:18:00,
2013-04-13 13:23:00,76.3,44.3,29.92,ENE,65,0.0,6.0,32,0.00,,---,0.00,VWS V14.01,2013-04-13 18:23:00,
2013-04-13 13:27:00,76.5,45.3,29.92,ESE,115,0.0,7.0,33,0.00,,---,0.00,VWS V14.01,2013-04-13 18:27:00,
2013-04-13 13:30:00,76.7,48.5,29.91,South,183,0.0,7.0,37,0.00,,---,0.00,VWS V14.01,2013-04-13 18:30:00,
2013-04-13 13:32:00,76.7,47.0,29.91,South,177,0.0,5.0,35,0.00,,---,0.00,VWS V14.01,2013-04-13 18:32:00,
2013-04-13 13:37:00,76.5,44.5,29.91,East,89,0.0,10.0,32,0.00,,---,0.00,VWS V14.01,2013-04-13 18:37:00,
2013-04-13 13:43:00,76.7,45.5,29.91,SE,130,5.0,10.0,33,0.00,,---,0.00,VWS V14.01,2013-04-13 18:43:00,
2013-04-13 13:45:00,76.7,43.8,29.90,ENE,63,0.0,10.0,31,0.00,,---,0.00,VWS V14.01,2013-04-13 18:45:00,
2013-04-13 13:48:00,77.0,44.9,29.90,ESE,123,4.0,9.0,32,0.00,,---,0.00,VWS V14.01,2013-04-13 18:48:00,
2013-04-13 13:53:00,77.0,45.7,29.90,NE,51,0.0,9.0,33,0.00,,---,0.00,VWS V14.01,2013-04-13 18:53:00,
2013-04-13 13:58:00,77.2,46.7,29.90,ESE,120,0.0,9.0,34,0.00,,---,0.00,VWS V14.01,2013-04-13 18:58:00,
2013-04-13 14:00:00,77.4,44.4,29.90,South,172,0.0,9.0,31,0.00,,---,0.00,VWS V14.01,2013-04-13 19:00:00,
2013-04-13 14:03:00,77.7,46.3,29.90,ESE,109,0.0,3.0,33,0.00,,---,0.00,VWS V14.01,2013-04-13 19:03:00,
2013-04-13 14:08:00,77.7,50.8,29.90,ESE,122,2.0,6.0,39,0.00,,---,0.00,VWS V14.01,2013-04-13 19:08:00,
2013-04-13 14:13:00,77.7,47.1,29.90,ENE,78,1.0,6.0,34,0.00,,---,0.00,VWS V14.01,2013-04-13 19:13:00,
2013-04-13 14:15:00,77.9,45.7,29.89,ENE,60,4.0,6.0,32,0.00,,---,0.00,VWS V14.01,2013-04-13 19:15:00,
2013-04-13 14:18:00,78.1,49.0,29.89,SE,142,0.0,5.0,36,0.00,,---,0.00,VWS V14.01,2013-04-13 19:18:00,
2013-04-13 14:23:00,78.3,43.5,29.89,SE,142,0.0,9.0,29,0.00,,---,0.00,VWS V14.01,2013-04-13 19:23:00,
2013-04-13 14:28:00,78.1,43.3,29.89,SE,131,1.0,9.0,29,0.00,,---,0.00,VWS V14.01,2013-04-13 19:28:00,
2013-04-13 14:30:00,77.7,43.8,29.88,SE,132,0.0,9.0,30,0.00,,---,0.00,VWS V14.01,2013-04-13 19:30:00,
2013-04-13 14:33:00,77.2,45.9,29.88,South,191,0.0,6.0,33,0.00,,---,0.00,VWS V14.01,2013-04-13 19:33:00,
2013-04-13 14:38:00,76.8,45.5,29.88,SE,142,0.0,6.0,33,0.00,,---,0.00,VWS V14.01,2013-04-13 19:38:00,
2013-04-13 14:43:00,77.4,45.3,29.88,SSW,193,0.0,8.0,32,0.00,,---,0.00,VWS V14.01,2013-04-13 19:43:00,
2013-04-13 14:45:00,77.4,47.6,29.87,SSW,193,0.0,8.0,35,0.00,,---,0.00,VWS V14.01,2013-04-13 19:45:00,
2013-04-13 14:49:00,77.4,46.1,29.87,SE,144,0.0,4.0,33,0.00,,---,0.00,VWS V14.01,2013-04-13 19:49:00,
2013-04-13 14:54:00,77.7,43.8,29.87,ESE,102,1.0,6.0,30,0.00,,---,0.00,VWS V14.01,2013-04-13 19:54:00,
2013-04-13 14:59:00,78.3,46.9,29.87,ESE,117,2.0,6.0,33,0.00,,---,0.00,VWS V14.01,2013-04-13 19:59:00,
2013-04-13 15:00:00,78.3,49.2,29.86,ESE,121,6.0,11.0,36,0.00,,---,0.00,VWS V14.01,2013-04-13 20:00:00,
2013-04-13 15:04:00,78.1,48.2,29.86,SE,134,2.0,8.0,35,0.00,,---,0.00,VWS V14.01,2013-04-13 20:04:00,
2013-04-13 15:09:00,78.3,45.2,29.86,South,190,0.0,8.0,31,0.00,,---,0.00,VWS V14.01,2013-04-13 20:09:00,
2013-04-13 15:14:00,78.1,45.9,29.84,ENE,57,4.0,8.0,32,0.00,,---,0.00,VWS V14.01,2013-04-13 20:14:00,
2013-04-13 15:15:00,78.3,46.0,29.84,ENE,76,5.0,8.0,32,0.00,,---,0.00,VWS V14.01,2013-04-13 20:15:00,
2013-04-13 15:19:00,78.1,45.0,29.84,NE,49,2.0,7.0,31,0.00,,---,0.00,VWS V14.01,2013-04-13 20:19:00,
2013-04-13 15:24:00,78.3,45.2,29.84,ENE,70,3.0,10.0,31,0.00,,---,0.00,VWS V14.01,2013-04-13 20:24:00,
2013-04-13 15:29:00,77.9,46.5,29.84,South,176,0.0,10.0,33,0.00,,---,0.00,VWS V14.01,2013-04-13 20:29:00,
2013-04-13 15:30:00,78.1,46.7,29.84,South,176,1.0,10.0,33,0.00,,---,0.00,VWS V14.01,2013-04-13 20:30:00,
2013-04-13 15:34:00,78.3,45.2,29.84,ESE,114,0.0,6.0,31,0.00,,---,0.00,VWS V14.01,2013-04-13 20:34:00,
2013-04-13 15:39:00,78.6,47.1,29.84,East,86,0.0,6.0,33,0.00,,---,0.00,VWS V14.01,2013-04-13 20:39:00,
2013-04-13 15:44:00,79.0,48.3,29.84,SSE,148,0.0,6.0,34,0.00,,---,0.00,VWS V14.01,2013-04-13 20:44:00,
2013-04-13 15:45:00,79.0,46.7,29.84,SE,138,0.0,6.0,32,0.00,,---,0.00,VWS V14.01,2013-04-13 20:45:00,
2013-04-13 15:49:00,79.6,48.0,29.84,SE,136,0.0,3.0,33,0.00,,---,0.00,VWS V14.01,2013-04-13 20:49:00,
2013-04-13 15:54:00,79.4,49.4,29.84,East,88,0.0,13.0,35,0.00,,---,0.00,VWS V14.01,2013-04-13 20:54:00,
2013-04-13 16:00:00,79.2,47.7,29.83,East,81,5.0,13.0,33,0.00,,---,0.00,VWS V14.01,2013-04-13 21:00:00,
2013-04-13 16:05:00,79.0,48.3,29.83,NNE,14,0.0,6.0,34,0.00,,---,0.00,VWS V14.01,2013-04-13 21:05:00,
2013-04-13 16:10:00,79.6,50.3,29.83,East,101,0.0,7.0,36,0.00,,---,0.00,VWS V14.01,2013-04-13 21:10:00,
2013-04-13 16:15:00,79.8,47.3,29.83,SSE,150,6.0,6.0,32,0.00,,---,0.00,VWS V14.01,2013-04-13 21:15:00,
2013-04-13 16:20:00,79.6,45.5,29.83,ESE,108,0.0,6.0,30,0.00,,---,0.00,VWS V14.01,2013-04-13 21:20:00,
2013-04-13 16:25:00,79.6,45.5,29.83,SE,140,1.0,6.0,30,0.00,,---,0.00,VWS V14.01,2013-04-13 21:25:00,
2013-04-13 16:30:00,79.4,47.0,29.82,ESE,105,8.0,12.0,32,0.00,,---,0.00,VWS V14.01,2013-04-13 21:30:00,
2013-04-13 16:35:00,79.2,44.2,29.82,ESE,118,0.0,12.0,29,0.00,,---,0.00,VWS V14.01,2013-04-13 21:35:00,
2013-04-13 16:40:00,79.2,45.1,29.82,ESE,111,0.0,12.0,30,0.00,,---,0.00,VWS V14.01,2013-04-13 21:40:00,
2013-04-13 16:45:00,79.2,46.0,29.82,ESE,121,4.0,4.0,31,0.00,,---,0.00,VWS V14.01,2013-04-13 21:45:00,
2013-04-13 16:50:00,79.2,46.8,29.82,SE,126,0.0,6.0,32,0.00,,---,0.00,VWS V14.01,2013-04-13 21:50:00,
2013-04-13 16:55:00,79.2,45.1,29.82,SSE,157,0.0,6.0,30,0.00,,---,0.00,VWS V14.01,2013-04-13 21:55:00,
2013-04-13 17:00:00,79.2,49.2,29.81,SE,139,0.0,1.0,35,0.00,,---,0.00,VWS V14.01,2013-04-13 22:00:00,
2013-04-13 17:06:00,79.0,45.8,29.81,ESE,116,3.0,7.0,31,0.00,,---,0.00,VWS V14.01,2013-04-13 22:06:00,
2013-04-13 17:11:00,78.8,48.9,29.81,ESE,104,0.0,7.0,35,0.00,,---,0.00,VWS V14.01,2013-04-13 22:11:00,
2013-04-13 17:15:00,79.0,49.8,29.81,South,181,0.0,7.0,36,0.00,,---,0.00,VWS V14.01,2013-04-13 22:15:00,
2013-04-13 17:16:00,79.0,47.5,29.81,SSE,157,0.0,0.0,33,0.00,,---,0.00,VWS V14.01,2013-04-13 22:16:00,
2013-04-13 17:21:00,79.2,47.7,29.81,NNE,30,0.0,3.0,33,0.00,,---,0.00,VWS V14.01,2013-04-13 22:21:00,
2013-04-13 17:26:00,79.2,45.1,29.81,East,99,0.0,9.0,30,0.00,,---,0.00,VWS V14.01,2013-04-13 22:26:00,
2013-04-13 17:30:00,79.2,47.7,29.81,ENE,76,4.0,9.0,33,0.00,,---,0.00,VWS V14.01,2013-04-13 22:30:00,
2013-04-13 17:31:00,79.0,48.3,29.81,SSE,153,1.0,7.0,34,0.00,,---,0.00,VWS V14.01,2013-04-13 22:31:00,
2013-04-13 17:37:00,78.5,47.8,29.81,NE,55,3.0,9.0,34,0.00,,---,0.00,VWS V14.01,2013-04-13 22:37:00,
2013-04-13 17:42:00,78.3,46.0,29.81,East,99,2.0,11.0,32,0.00,,---,0.00,VWS V14.01,2013-04-13 22:42:00,
2013-04-13 17:45:00,78.3,46.0,29.81,ESE,104,1.0,11.0,32,0.00,,---,0.00,VWS V14.01,2013-04-13 22:45:00,
2013-04-13 17:47:00,78.1,48.2,29.81,ESE,121,4.0,4.0,35,0.00,,---,0.00,VWS V14.01,2013-04-13 22:47:00,
2013-04-13 17:52:00,77.7,47.9,29.81,SE,137,3.0,6.0,35,0.00,,---,0.00,VWS V14.01,2013-04-13 22:52:00,
2013-04-13 17:57:00,77.2,52.4,29.81,SSW,198,3.0,6.0,42,0.00,,---,0.00,VWS V14.01,2013-04-13 22:57:00,
2013-04-13 18:00:00,76.8,53.3,29.81,SW,215,0.0,6.0,44,0.00,,---,0.00,VWS V14.01,2013-04-13 23:00:00,
2013-04-13 18:02:00,76.7,54.4,29.81,SSW,204,0.0,0.0,46,0.00,,---,0.00,VWS V14.01,2013-04-13 23:02:00,
2013-04-13 18:07:00,75.8,54.2,29.81,SE,145,0.0,2.0,47,0.00,,---,0.00,VWS V14.01,2013-04-13 23:07:00,
2013-04-13 18:12:00,75.1,54.7,29.81,SSE,153,0.0,5.0,49,0.00,,---,0.00,VWS V14.01,2013-04-13 23:12:00,
2013-04-13 18:15:00,74.9,54.5,29.82,SSE,163,0.0,5.0,49,0.00,,---,0.00,VWS V14.01,2013-04-13 23:15:00,
2013-04-13 18:17:00,74.7,54.8,29.82,South,176,0.0,1.0,50,0.00,,---,0.00,VWS V14.01,2013-04-13 23:17:00,
2013-04-13 18:23:00,74.2,56.0,29.82,South,176,0.0,1.0,53,0.00,,---,0.00,VWS V14.01,2013-04-13 23:23:00,
2013-04-13 18:28:00,73.7,56.0,29.82,South,175,0.0,1.0,54,0.00,,---,0.00,VWS V14.01,2013-04-13 23:28:00,
2013-04-13 18:30:00,73.5,55.8,29.81,ESE,123,0.0,1.0,54,0.00,,---,0.00,VWS V14.01,2013-04-13 23:30:00,
2013-04-13 18:33:00,73.2,54.5,29.81,SSE,164,0.0,3.0,52,0.00,,---,0.00,VWS V14.01,2013-04-13 23:33:00,
2013-04-13 18:38:00,72.8,54.7,29.81,SSE,164,0.0,3.0,53,0.00,,---,0.00,VWS V14.01,2013-04-13 23:38:00,
2013-04-13 18:43:00,72.5,54.9,29.81,SSE,164,0.0,3.0,54,0.00,,---,0.00,VWS V14.01,2013-04-13 23:43:00,
2013-04-13 18:45:00,72.3,54.7,29.82,SSE,164,0.0,3.0,54,0.00,,---,0.00,VWS V14.01,2013-04-13 23:45:00,
2013-04-13 18:48:00,72.0,55.5,29.82,SE,137,0.0,1.0,56,0.00,,---,0.00,VWS V14.01,2013-04-13 23:48:00,
2013-04-13 18:53:00,71.6,54.6,29.82,SSE,148,0.0,4.0,55,0.00,,---,0.00,VWS V14.01,2013-04-13 23:53:00,
2013-04-13 19:00:00,71.1,53.1,29.82,SSW,192,0.0,0.0,53,0.00,,---,0.00,VWS V14.01,2013-04-14 00:00:00,
2013-04-13 19:05:00,70.8,52.3,29.82,SSE,167,0.0,3.0,52,0.00,,---,0.00,VWS V14.01,2013-04-14 00:05:00,
2013-04-13 19:10:00,70.3,52.4,29.82,ESE,109,0.0,3.0,53,0.00,,---,0.00,VWS V14.01,2013-04-14 00:10:00,
2013-04-13 19:15:00,69.8,52.4,29.81,ESE,109,0.0,0.0,54,0.00,,---,0.00,VWS V14.01,2013-04-14 00:15:00,
2013-04-13 19:20:00,69.3,51.5,29.81,ESE,121,0.0,3.0,53,0.00,,---,0.00,VWS V14.01,2013-04-14 00:20:00,
2013-04-13 19:25:00,68.8,51.5,29.81,ESE,121,0.0,3.0,54,0.00,,---,0.00,VWS V14.01,2013-04-14 00:25:00,
2013-04-13 19:30:00,68.3,51.0,29.81,ESE,121,0.0,0.0,54,0.00,,---,0.00,VWS V14.01,2013-04-14 00:30:00,
2013-04-13 19:35:00,67.8,51.5,29.81,ESE,121,0.0,0.0,56,0.00,,---,0.00,VWS V14.01,2013-04-14 00:35:00,
2013-04-13 19:40:00,67.3,51.1,29.81,ESE,121,0.0,0.0,56,0.00,,---,0.00,VWS V14.01,2013-04-14 00:40:00,
2013-04-13 19:45:00,66.8,52.0,29.81,ESE,121,0.0,0.0,59,0.00,,---,0.00,VWS V14.01,2013-04-14 00:45:00,
2013-04-13 19:50:00,66.1,51.8,29.81,ESE,121,0.0,0.0,60,0.00,,---,0.00,VWS V14.01,2013-04-14 00:50:00,
2013-04-13 19:55:00,65.5,51.3,29.81,ESE,121,0.0,0.0,60,0.00,,---,0.00,VWS V14.01,2013-04-14 00:55:00,
2013-04-13 20:00:00,65.2,51.0,29.82,ESE,121,0.0,0.0,60,0.00,,---,0.00,VWS V14.01,2013-04-14 01:00:00,
2013-04-13 20:05:00,64.7,51.8,29.82,ESE,121,0.0,0.0,63,0.00,,---,0.00,VWS V14.01,2013-04-14 01:05:00,
2013-04-13 20:10:00,64.3,51.9,29.82,ESE,121,0.0,0.0,64,0.00,,---,0.00,VWS V14.01,2013-04-14 01:10:00,
2013-04-13 20:15:00,64.0,51.6,29.82,ESE,121,0.0,0.0,64,0.00,,---,0.00,VWS V14.01,2013-04-14 01:15:00,
2013-04-13 20:16:00,63.9,51.9,29.82,ESE,121,0.0,0.0,65,0.00,,---,0.00,VWS V14.01,2013-04-14 01:16:00,
2013-04-13 20:21:00,63.5,52.0,29.82,ESE,121,0.0,0.0,66,0.00,,---,0.00,VWS V14.01,2013-04-14 01:21:00,
2013-04-13 20:26:00,63.1,52.4,29.82,ESE,121,0.0,0.0,68,0.00,,---,0.00,VWS V14.01,2013-04-14 01:26:00,
2013-04-13 20:30:00,62.9,53.0,29.83,ESE,121,0.0,0.0,70,0.00,,---,0.00,VWS V14.01,2013-04-14 01:30:00,
2013-04-13 20:31:00,62.7,52.8,29.83,ESE,121,0.0,0.0,70,0.00,,---,0.00,VWS V14.01,2013-04-14 01:31:00,
2013-04-13 20:37:00,62.4,52.1,29.83,ESE,121,0.0,0.0,69,0.00,,---,0.00,VWS V14.01,2013-04-14 01:37:00,
2013-04-13 20:42:00,62.0,51.3,29.83,ESE,121,0.0,0.0,68,0.00,,---,0.00,VWS V14.01,2013-04-14 01:42:00,
2013-04-13 20:45:00,61.8,51.1,29.83,ESE,121,0.0,0.0,68,0.00,,---,0.00,VWS V14.01,2013-04-14 01:45:00,
2013-04-13 20:47:00,61.6,50.5,29.83,ESE,121,0.0,0.0,67,0.00,,---,0.00,VWS V14.01,2013-04-14 01:47:00,
2013-04-13 20:52:00,61.5,50.8,29.83,ESE,121,0.0,0.0,68,0.00,,---,0.00,VWS V14.01,2013-04-14 01:52:00,
2013-04-13 20:57:00,61.5,50.8,29.83,ESE,118,0.0,0.0,68,0.00,,---,0.00,VWS V14.01,2013-04-14 01:57:00,
2013-04-13 21:00:00,61.5,50.8,29.83,ESE,118,0.0,0.0,68,0.00,,---,0.00,VWS V14.01,2013-04-14 02:00:00,
2013-04-13 21:02:00,61.5,50.8,29.83,ESE,118,0.0,0.0,68,0.00,,---,0.00,VWS V14.01,2013-04-14 02:02:00,
2013-04-13 21:07:00,61.3,50.3,29.83,ESE,118,0.0,0.0,67,0.00,,---,0.00,VWS V14.01,2013-04-14 02:07:00,
2013-04-13 21:13:00,61.3,50.7,29.83,ESE,118,0.0,0.0,68,0.00,,---,0.00,VWS V14.01,2013-04-14 02:13:00,
2013-04-13 21:15:00,61.3,50.7,29.84,ESE,118,0.0,0.0,68,0.00,,---,0.00,VWS V14.01,2013-04-14 02:15:00,
2013-04-13 21:18:00,61.5,50.8,29.84,ESE,118,0.0,0.0,68,0.00,,---,0.00,VWS V14.01,2013-04-14 02:18:00,
2013-04-13 21:23:00,61.6,50.5,29.84,ESE,117,0.0,0.0,67,0.00,,---,0.00,VWS V14.01,2013-04-14 02:23:00,
2013-04-13 21:28:00,61.8,51.1,29.84,ESE,115,0.0,0.0,68,0.00,,---,0.00,VWS V14.01,2013-04-14 02:28:00,
2013-04-13 21:30:00,61.8,51.1,29.83,SE,140,0.0,1.0,68,0.00,,---,0.00,VWS V14.01,2013-04-14 02:30:00,
2013-04-13 21:33:00,61.8,51.5,29.83,SE,141,0.0,0.0,69,0.00,,---,0.00,VWS V14.01,2013-04-14 02:33:00,
2013-04-13 21:38:00,61.8,51.1,29.83,East,101,0.0,0.0,68,0.00,,---,0.00,VWS V14.01,2013-04-14 02:38:00,
2013-04-13 21:43:00,62.0,51.3,29.83,East,101,0.0,0.0,68,0.00,,---,0.00,VWS V14.01,2013-04-14 02:43:00,
2013-04-13 21:45:00,62.1,51.4,29.84,East,101,0.0,0.0,68,0.00,,---,0.00,VWS V14.01,2013-04-14 02:45:00,
2013-04-13 21:48:00,62.3,52.0,29.84,East,101,0.0,0.0,69,0.00,,---,0.00,VWS V14.01,2013-04-14 02:48:00,
2013-04-13 21:53:00,62.6,53.1,29.84,East,101,0.0,0.0,71,0.00,,---,0.00,VWS V14.01,2013-04-14 02:53:00,
2013-04-13 21:58:00,62.6,52.3,29.84,ESE,105,0.0,2.0,69,0.00,,---,0.00,VWS V14.01,2013-04-14 02:58:00,
2013-04-13 22:00:00,62.6,52.3,29.84,ESE,105,0.0,2.0,69,0.00,,---,0.00,VWS V14.01,2013-04-14 03:00:00,
2013-04-13 22:03:00,62.7,52.4,29.84,ESE,105,0.0,0.0,69,0.00,,---,0.00,VWS V14.01,2013-04-14 03:03:00,
2013-04-13 22:08:00,62.7,53.2,29.84,ESE,105,0.0,0.0,71,0.00,,---,0.00,VWS V14.01,2013-04-14 03:08:00,
2013-04-13 22:13:00,62.7,52.0,29.84,East,83,0.0,2.0,68,0.00,,---,0.00,VWS V14.01,2013-04-14 03:13:00,
2013-04-13 22:15:00,62.7,52.0,29.83,East,83,0.0,2.0,68,0.00,,---,0.00,VWS V14.01,2013-04-14 03:15:00,
2013-04-13 22:18:00,62.7,52.0,29.83,East,83,0.0,0.0,68,0.00,,---,0.00,VWS V14.01,2013-04-14 03:18:00,
2013-04-13 22:23:00,62.9,52.2,29.83,East,83,0.0,1.0,68,0.00,,---,0.00,VWS V14.01,2013-04-14 03:23:00,
2013-04-13 22:28:00,62.9,52.2,29.83,East,83,0.0,1.0,68,0.00,,---,0.00,VWS V14.01,2013-04-14 03:28:00,
2013-04-13 22:30:00,62.9,52.2,29.83,East,83,0.0,1.0,68,0.00,,---,0.00,VWS V14.01,2013-04-14 03:30:00,
2013-04-13 22:33:00,62.9,52.2,29.83,East,83,0.0,0.0,68,0.00,,---,0.00,VWS V14.01,2013-04-14 03:33:00,
2013-04-13 22:38:00,62.9,52.2,29.83,East,83,0.0,0.0,68,0.00,,---,0.00,VWS V14.01,2013-04-14 03:38:00,
2013-04-13 22:43:00,62.9,52.6,29.83,East,83,0.0,0.0,69,0.00,,---,0.00,VWS V14.01,2013-04-14 03:43:00,
2013-04-13 22:45:00,63.1,53.6,29.83,East,83,0.0,1.0,71,0.00,,---,0.00,VWS V14.01,2013-04-14 03:45:00,
2013-04-13 22:48:00,63.1,53.2,29.83,East,83,0.0,0.0,70,0.00,,---,0.00,VWS V14.01,2013-04-14 03:48:00,
2013-04-13 22:54:00,62.9,52.6,29.83,East,83,0.0,1.0,69,0.00,,---,0.00,VWS V14.01,2013-04-14 03:54:00,
2013-04-13 22:59:00,62.7,52.8,29.83,East,83,0.0,1.0,70,0.00,,---,0.00,VWS V14.01,2013-04-14 03:59:00,
2013-04-13 23:00:00,62.7,53.2,29.83,East,83,0.0,1.0,71,0.00,,---,0.00,VWS V14.01,2013-04-14 04:00:00,
2013-04-13 23:01:00,62.7,53.5,29.83,East,83,0.0,0.0,72,0.00,,---,0.00,VWS V14.01,2013-04-14 04:01:00,
2013-04-13 23:02:00,62.7,53.5,29.83,East,83,0.0,0.0,72,0.00,,---,0.00,VWS V14.01,2013-04-14 04:02:00,
2013-04-13 23:07:00,62.6,53.1,29.83,ESE,123,0.0,2.0,71,0.00,,---,0.00,VWS V14.01,2013-04-14 04:07:00,
2013-04-13 23:12:00,62.4,52.9,29.83,ESE,111,0.0,2.0,71,0.00,,---,0.00,VWS V14.01,2013-04-14 04:12:00,
2013-04-13 23:15:00,62.4,52.9,29.82,ESE,111,0.0,2.0,71,0.00,,---,0.00,VWS V14.01,2013-04-14 04:15:00,
2013-04-13 23:17:00,62.4,52.9,29.82,ESE,111,0.0,1.0,71,0.00,,---,0.00,VWS V14.01,2013-04-14 04:17:00,
2013-04-13 23:22:00,62.6,53.1,29.82,ENE,76,0.0,1.0,71,0.00,,---,0.00,VWS V14.01,2013-04-14 04:22:00,
2013-04-13 23:27:00,62.6,53.1,29.82,ENE,77,0.0,2.0,71,0.00,,---,0.00,VWS V14.01,2013-04-14 04:27:00,
2013-04-13 23:30:00,62.7,53.2,29.81,ENE,77,0.0,2.0,71,0.00,,---,0.00,VWS V14.01,2013-04-14 04:30:00,
2013-04-13 23:32:00,62.7,53.2,29.81,ENE,77,0.0,0.0,71,0.00,,---,0.00,VWS V14.01,2013-04-14 04:32:00,
2013-04-13 23:37:00,62.7,53.5,29.81,ENE,77,0.0,1.0,72,0.00,,---,0.00,VWS V14.01,2013-04-14 04:37:00,
2013-04-13 23:44:00,62.7,53.9,29.81,East,94,0.0,1.0,73,0.00,,---,0.00,VWS V14.01,2013-04-14 04:44:00,
2013-04-13 23:45:00,62.7,53.9,29.81,East,94,0.0,1.0,73,0.00,,---,0.00,VWS V14.01,2013-04-14 04:45:00,
2013-04-13 23:49:00,62.7,53.9,29.81,SE,137,0.0,2.0,73,0.00,,---,0.00,VWS V14.01,2013-04-14 04:49:00,
2013-04-13 23:54:00,62.7,54.3,29.81,SW,223,0.0,6.0,74,0.00,,---,0.00,VWS V14.01,2013-04-14 04:54:00,